Time;durP1;ratioP1;P1;durP2;ratioP2;P2;SDS_P1;SDS_P2;PMS_P1;PMS_P2;Temp;Humidity;BMP_temperature;BMP_pressure;BME280_temperature;BME280_humidity;BME280_pressure;Samples;Min_cycle;Max_cycle;Signal;HPM_P1;HPM_P2
2022/06/07 00:01:24;;;;;;;4.43;4.23;;;17.20;99.90;;;;;;5037385;28;20229;-47
2022/06/07 00:03:51;;;;;;;4.33;4.13;;;17.20;99.90;;;;;;5044543;28;20244;-46
2022/06/07 00:06:18;;;;;;;4.00;3.80;;;17.20;99.90;;;;;;5038976;28;20230;-46
2022/06/07 00:08:45;;;;;;;4.33;4.13;;;17.30;99.90;;;;;;5041830;28;20280;-47
2022/06/07 00:11:12;;;;;;;3.93;3.63;;;17.30;99.90;;;;;;5033299;28;20237;-47
2022/06/07 00:13:39;;;;;;;4.63;4.20;;;17.30;99.90;;;;;;5033396;28;20203;-46
2022/06/07 00:16:08;;;;;;;3.80;3.60;;;17.30;99.90;;;;;;5044272;28;20252;-47
2022/06/07 00:18:35;;;;;;;4.03;3.77;;;17.30;99.90;;;;;;5045126;28;20271;-47
2022/06/07 00:21:02;;;;;;;5.07;4.60;;;17.30;99.90;;;;;;5053531;28;20197;-47
2022/06/07 00:23:29;;;;;;;4.90;4.60;;;17.20;99.90;;;;;;5048776;28;20228;-46
2022/06/07 00:25:56;;;;;;;5.20;3.80;;;17.20;99.90;;;;;;5048112;28;20296;-47
2022/06/07 00:28:23;;;;;;;4.67;4.47;;;17.20;99.90;;;;;;5052534;28;20214;-47
2022/06/07 00:30:52;;;;;;;5.20;4.83;;;17.10;99.90;;;;;;5035753;28;20696;-47
2022/06/07 00:33:23;;;;;;;4.70;4.40;;;17.10;99.90;;;;;;5033049;28;20210;-47
2022/06/07 00:35:51;;;;;;;4.27;4.07;;;17.20;99.90;;;;;;5038577;28;20198;-47
2022/06/07 00:38:18;;;;;;;5.30;5.05;;;17.10;99.90;;;;;;5037897;28;20452;-47
2022/06/07 00:40:44;;;;;;;5.10;4.70;;;17.20;99.90;;;;;;5048561;28;20236;-49
2022/06/07 00:43:12;;;;;;;4.47;4.17;;;17.10;99.90;;;;;;5045037;28;20193;-47
2022/06/07 00:45:39;;;;;;;5.50;5.13;;;17.10;99.90;;;;;;5052195;28;20286;-47
2022/06/07 00:48:08;;;;;;;4.67;4.37;;;17.10;99.90;;;;;;5067246;22;20241;-50
2022/06/07 00:50:42;;;;;;;4.70;4.50;;;17.00;99.90;;;;;;5051528;28;20206;-49
2022/06/07 00:53:22;;;;;;;5.20;4.73;;;17.00;99.90;;;;;;5048515;28;20622;-49
2022/06/07 00:55:49;;;;;;;4.73;4.47;;;16.90;99.90;;;;;;5052546;28;20232;-49
2022/06/07 00:58:16;;;;;;;4.53;4.40;;;17.00;99.90;;;;;;5052406;28;20217;-49
2022/06/07 01:00:44;;;;;;;4.53;4.33;;;17.10;99.90;;;;;;5051417;28;20198;-49
2022/06/07 01:03:11;;;;;;;4.70;4.40;;;17.10;99.90;;;;;;5041108;28;20702;-49
2022/06/07 01:05:39;;;;;;;4.73;4.50;;;17.10;99.90;;;;;;5052321;28;20198;-50
2022/06/07 01:10:54;;;;;;;4.97;4.77;;;17.00;99.90;;;;;;5049438;28;20204;-50
2022/06/07 01:13:25;;;;;;;4.50;4.30;;;16.90;99.90;;;;;;5044876;28;20194;-49
2022/06/07 01:15:58;;;;;;;5.57;5.17;;;16.90;99.90;;;;;;5052087;28;20206;-49
2022/06/07 01:18:25;;;;;;;5.63;5.10;;;16.90;99.90;;;;;;5044594;28;20250;-49
2022/06/07 01:21:14;;;;;;;5.50;5.17;;;16.90;99.90;;;;;;5049531;28;20201;-49
2022/06/07 01:23:42;;;;;;;5.50;5.20;;;16.90;99.90;;;;;;5050968;28;20296;-49
2022/06/07 01:26:10;;;;;;;5.57;5.33;;;16.80;99.90;;;;;;5040812;28;20198;-49
2022/06/07 01:28:37;;;;;;;4.23;4.03;;;16.90;99.90;;;;;;5045097;28;20221;-49
2022/06/07 01:31:04;;;;;;;10.40;5.20;;;16.80;99.90;;;;;;5051619;28;20205;-52
2022/06/07 01:33:31;;;;;;;5.50;5.20;;;16.80;99.90;;;;;;5051791;28;20201;-49
2022/06/07 01:36:02;;;;;;;5.20;4.80;;;16.80;99.90;;;;;;5051699;28;20516;-49
2022/06/07 01:38:32;;;;;;;5.50;5.17;;;16.80;99.90;;;;;;5048810;28;20221;-50
2022/06/07 01:43:43;;;;;;;5.67;5.37;;;16.80;99.90;;;;;;5051839;28;20276;-49
2022/06/07 01:46:11;;;;;;;4.57;4.37;;;16.80;99.90;;;;;;5051788;28;20214;-49
2022/06/07 01:48:38;;;;;;;5.10;4.90;;;16.80;99.90;;;;;;5051492;28;20249;-49
2022/06/07 01:51:07;;;;;;;5.67;5.27;;;16.80;99.90;;;;;;5049547;28;20198;-49
2022/06/07 01:53:36;;;;;;;5.50;5.30;;;16.80;99.90;;;;;;5051281;28;20193;-49
2022/06/07 01:56:05;;;;;;;4.83;4.63;;;16.90;99.90;;;;;;5051628;28;20202;-49
2022/06/07 01:58:32;;;;;;;5.40;4.90;;;16.90;99.90;;;;;;5051247;28;20765;-49
2022/06/07 02:00:59;;;;;;;4.93;4.73;;;16.90;99.90;;;;;;5051228;28;20202;-49
2022/06/07 02:03:26;;;;;;;8.30;5.63;;;17.00;99.90;;;;;;5050861;28;20293;-49
2022/06/07 02:05:58;;;;;;;4.93;4.73;;;17.00;99.90;;;;;;5041995;28;20201;-49
2022/06/07 02:08:26;;;;;;;5.77;5.47;;;17.00;99.90;;;;;;5051286;28;20589;-48
2022/06/07 02:10:56;;;;;;;5.90;5.60;;;17.00;99.90;;;;;;5049121;28;20206;-49
2022/06/07 02:13:24;;;;;;;6.23;5.73;;;17.00;99.90;;;;;;5050880;28;20189;-49
2022/06/07 02:15:51;;;;;;;6.47;5.40;;;17.00;99.90;;;;;;5051343;28;20297;-49
2022/06/07 02:18:18;;;;;;;5.50;5.20;;;17.00;99.90;;;;;;5049526;28;20260;-49
2022/06/07 02:20:45;;;;;;;5.13;4.83;;;17.00;99.90;;;;;;5050879;28;20866;-49
2022/06/07 02:23:12;;;;;;;5.10;4.90;;;17.00;99.90;;;;;;5049910;28;20205;-49
2022/06/07 02:25:43;;;;;;;5.37;5.07;;;17.00;99.90;;;;;;5042873;28;20751;-50
2022/06/07 02:28:13;;;;;;;4.80;4.60;;;16.90;99.90;;;;;;5051281;28;20234;-49
2022/06/07 02:30:41;;;;;;;5.77;5.40;;;16.90;99.90;;;;;;5051163;28;20205;-50
2022/06/07 02:33:10;;;;;;;7.17;6.67;;;16.90;99.90;;;;;;5050816;28;20205;-49
2022/06/07 02:35:39;;;;;;;6.30;5.80;;;16.90;99.90;;;;;;5048931;28;20213;-49
2022/06/07 02:38:06;;;;;;;7.60;6.70;;;16.90;99.90;;;;;;5050309;28;20758;-49
2022/06/07 02:40:33;;;;;;;6.47;5.97;;;16.90;99.90;;;;;;5051157;28;20206;-49
2022/06/07 02:43:01;;;;;;;6.97;6.47;;;16.90;99.90;;;;;;5050848;28;20209;-49
2022/06/07 02:45:30;;;;;;;9.57;8.77;;;16.80;99.90;;;;;;5050909;28;20548;-49
2022/06/07 02:47:57;;;;;;;7.10;6.53;;;16.80;99.90;;;;;;5049065;28;20256;-49
2022/06/07 02:50:24;;;;;;;7.47;6.87;;;16.80;99.90;;;;;;5050033;28;20201;-49
2022/06/07 02:52:51;;;;;;;6.77;6.40;;;16.80;99.90;;;;;;5050632;28;20205;-49
2022/06/07 02:55:18;;;;;;;6.63;6.23;;;16.80;99.90;;;;;;5050963;28;20202;-49
2022/06/07 02:57:46;;;;;;;8.47;6.10;;;16.80;99.90;;;;;;5050796;28;20208;-49
2022/06/07 03:00:16;;;;;;;7.13;6.63;;;16.80;99.90;;;;;;5049279;28;20210;-49
2022/06/07 03:02:45;;;;;;;7.77;7.20;;;16.80;99.90;;;;;;5042639;28;20220;-49
2022/06/07 03:05:12;;;;;;;6.93;6.63;;;16.90;99.90;;;;;;5030730;28;20244;-49
2022/06/07 03:07:40;;;;;;;7.17;6.70;;;16.90;99.90;;;;;;5045325;28;20232;-49
2022/06/07 03:10:09;;;;;;;7.33;6.47;;;16.90;99.90;;;;;;5042144;28;20275;-49
2022/06/07 03:12:36;;;;;;;6.60;6.20;;;16.80;99.90;;;;;;5049458;28;20202;-49
2022/06/07 03:15:03;;;;;;;7.43;6.83;;;16.80;99.90;;;;;;5050936;28;20198;-50
2022/06/07 03:17:30;;;;;;;7.33;6.83;;;16.70;99.90;;;;;;5053920;28;20194;-49
2022/06/07 03:19:59;;;;;;;6.73;6.33;;;16.70;99.90;;;;;;5054489;28;20276;-50
2022/06/07 03:22:26;;;;;;;7.50;7.03;;;16.70;99.90;;;;;;5047315;28;20548;-50
2022/06/07 03:24:53;;;;;;;7.40;6.90;;;16.70;99.90;;;;;;5049321;28;20209;-49
2022/06/07 03:27:20;;;;;;;6.17;5.77;;;16.70;99.90;;;;;;5047296;28;20214;-49
2022/06/07 03:29:47;;;;;;;5.47;5.17;;;16.80;99.90;;;;;;5054342;28;20222;-49
2022/06/07 03:32:14;;;;;;;6.30;6.00;;;16.90;99.90;;;;;;5054016;28;20587;-49
2022/06/07 03:34:41;;;;;;;5.87;5.47;;;16.90;99.90;;;;;;5054138;28;20198;-50
2022/06/07 03:37:09;;;;;;;6.53;6.17;;;16.90;99.90;;;;;;5052828;28;20194;-49
2022/06/07 03:39:36;;;;;;;7.07;6.50;;;16.90;99.90;;;;;;5052726;28;20702;-49
2022/06/07 03:42:04;;;;;;;7.10;6.70;;;16.90;99.90;;;;;;5049343;28;20267;-49
2022/06/07 03:44:31;;;;;;;6.77;6.47;;;16.90;99.90;;;;;;5053950;28;20198;-49
2022/06/07 03:46:58;;;;;;;7.43;6.20;;;16.90;99.90;;;;;;5053787;28;20240;-49
2022/06/07 03:49:25;;;;;;;7.27;6.87;;;16.90;99.90;;;;;;5049150;28;20707;-49
2022/06/07 03:51:52;;;;;;;7.17;6.70;;;16.90;99.90;;;;;;5046735;28;20242;-50
2022/06/07 03:54:21;;;;;;;6.77;6.30;;;16.90;99.90;;;;;;5050858;28;20198;-49
2022/06/07 03:56:48;;;;;;;8.73;7.83;;;16.90;99.90;;;;;;5053425;28;20198;-49
2022/06/07 03:59:15;;;;;;;9.00;8.23;;;16.90;99.90;;;;;;5052937;28;20263;-49
2022/06/07 04:01:42;;;;;;;7.40;6.97;;;16.90;99.90;;;;;;5052699;28;20202;-49
2022/06/07 04:04:11;;;;;;;7.40;7.00;;;16.80;99.90;;;;;;5052745;28;20221;-49
2022/06/07 04:06:40;;;;;;;8.47;7.87;;;16.80;99.90;;;;;;5051606;28;20202;-50
2022/06/07 04:09:08;;;;;;;7.40;6.90;;;16.90;99.90;;;;;;5052058;28;20302;-50
2022/06/07 04:11:36;;;;;;;8.67;7.83;;;16.90;99.90;;;;;;5052368;28;20205;-49
2022/06/07 04:14:04;;;;;;;7.77;7.00;;;16.90;99.90;;;;;;5052755;28;20205;-49
2022/06/07 04:16:32;;;;;;;7.40;6.90;;;17.00;99.90;;;;;;5052608;28;20260;-50
2022/06/07 04:18:59;;;;;;;6.70;6.30;;;17.20;99.90;;;;;;5052632;28;20650;-49
2022/06/07 04:21:26;;;;;;;7.23;6.73;;;17.20;99.90;;;;;;5051497;28;20198;-50
2022/06/07 04:23:54;;;;;;;7.07;6.47;;;17.10;99.90;;;;;;5052352;28;20202;-49
2022/06/07 04:26:24;;;;;;;6.80;6.20;;;17.10;99.90;;;;;;5052659;28;20565;-49
2022/06/07 04:28:53;;;;;;;7.67;7.23;;;17.20;99.90;;;;;;5052446;28;20641;-49
2022/06/07 04:31:21;;;;;;;6.53;6.07;;;17.10;99.90;;;;;;5052323;28;20209;-49
2022/06/07 04:33:49;;;;;;;6.00;5.70;;;17.10;99.90;;;;;;5052596;28;20202;-50
2022/06/07 04:36:20;;;;;;;6.03;5.70;;;17.00;99.90;;;;;;5052476;28;20256;-49
2022/06/07 04:38:49;;;;;;;6.77;6.37;;;16.90;99.90;;;;;;5051323;28;20218;-49
2022/06/07 04:41:18;;;;;;;5.30;5.00;;;16.90;99.90;;;;;;5052230;28;20202;-49
2022/06/07 04:43:46;;;;;;;4.80;4.50;;;16.90;99.90;;;;;;5052380;28;20205;-52
2022/06/07 04:46:16;;;;;;;4.20;3.90;;;16.90;99.90;;;;;;5052495;28;20198;-48
2022/06/07 04:48:45;;;;;;;7.37;4.90;;;16.90;99.90;;;;;;5052029;28;20646;-49
2022/06/07 04:51:17;;;;;;;3.63;3.40;;;16.90;99.90;;;;;;5052491;28;20201;-49
2022/06/07 04:53:44;;;;;;;4.70;4.30;;;16.80;99.90;;;;;;5051913;28;20198;-49
2022/06/07 04:56:13;;;;;;;3.80;3.67;;;16.70;99.90;;;;;;5052890;28;20256;-50
2022/06/07 04:58:40;;;;;;;2.20;2.20;;;16.70;99.90;;;;;;5051469;28;20221;-49
2022/06/07 05:01:11;;;;;;;2.40;2.30;;;16.70;99.90;;;;;;5043273;28;20197;-49
2022/06/07 05:03:39;;;;;;;3.40;3.10;;;16.70;99.90;;;;;;5045965;28;20687;-49
2022/06/07 05:06:19;;;;;;;4.30;3.90;;;16.70;99.90;;;;;;5046461;28;20194;-49
2022/06/07 05:08:47;;;;;;;3.50;3.30;;;16.60;99.90;;;;;;5046699;28;20279;-50
2022/06/07 05:11:14;;;;;;;4.67;4.17;;;16.50;99.90;;;;;;5049708;28;20201;-50
2022/06/07 05:13:42;;;;;;;3.30;3.00;;;16.60;99.90;;;;;;5050532;28;20285;-50
2022/06/07 05:16:09;;;;;;;3.70;3.50;;;16.60;99.90;;;;;;5050761;28;20198;-49
2022/06/07 05:18:36;;;;;;;3.40;3.20;;;16.60;99.90;;;;;;5049118;28;20245;-49
2022/06/07 05:21:07;;;;;;;3.57;3.27;;;16.60;99.90;;;;;;5049975;28;20638;-49
2022/06/07 05:23:34;;;;;;;3.33;3.23;;;16.60;99.90;;;;;;5050552;28;20205;-49
2022/06/07 05:26:07;;;;;;;3.23;3.13;;;16.60;99.90;;;;;;5047160;28;20292;-49
2022/06/07 05:28:35;;;;;;;3.43;3.23;;;16.70;99.90;;;;;;5049515;28;20237;-49
2022/06/07 05:31:02;;;;;;;2.57;2.50;;;16.60;99.90;;;;;;5050217;28;20733;-49
2022/06/07 05:33:29;;;;;;;1.90;1.80;;;16.60;99.90;;;;;;5050233;28;20284;-49
2022/06/07 05:35:58;;;;;;;1.80;1.80;;;16.50;99.90;;;;;;5045629;28;20631;-49
2022/06/07 05:38:27;;;;;;;1.90;1.80;;;16.50;99.90;;;;;;5049588;28;20759;-49
2022/06/07 05:40:55;;;;;;;1.50;1.50;;;16.60;99.90;;;;;;5050046;28;20644;-50
2022/06/07 05:43:22;;;;;;;2.10;2.00;;;16.60;99.90;;;;;;5048139;28;20679;-49
2022/06/07 05:45:49;;;;;;;2.63;2.50;;;16.60;99.90;;;;;;5050313;28;20588;-50
2022/06/07 05:48:16;;;;;;;2.57;2.37;;;16.70;99.90;;;;;;5049822;28;20695;-49
2022/06/07 05:50:44;;;;;;;3.10;2.83;;;16.70;99.90;;;;;;5050180;28;20291;-50
2022/06/07 05:53:11;;;;;;;3.67;3.33;;;16.80;99.90;;;;;;5048628;28;20209;-49
2022/06/07 05:55:40;;;;;;;3.13;2.93;;;16.80;99.90;;;;;;5051110;28;20252;-50
2022/06/07 05:58:07;;;;;;;4.80;4.50;;;16.70;99.90;;;;;;5048898;28;20786;-50
2022/06/07 06:00:35;;;;;;;4.30;4.00;;;16.70;99.90;;;;;;5050636;28;20233;-50
2022/06/07 06:03:05;;;;;;;3.57;3.37;;;16.70;99.90;;;;;;5050727;28;20702;-49
2022/06/07 06:05:33;;;;;;;4.07;3.77;;;16.70;99.90;;;;;;5048847;28;20224;-50
2022/06/07 06:10:45;;;;;;;4.10;3.87;;;16.60;99.90;;;;;;5046272;28;20714;-50
2022/06/07 06:13:12;;;;;;;3.33;3.13;;;16.60;99.90;;;;;;5045208;28;20206;-50
2022/06/07 06:15:39;;;;;;;5.13;4.20;;;16.60;99.90;;;;;;5048585;28;20244;-50
2022/06/07 06:18:06;;;;;;;3.70;3.00;;;16.60;99.90;;;;;;5043718;28;20249;-50
2022/06/07 06:20:36;;;;;;;3.70;3.40;;;16.50;99.90;;;;;;5047536;28;20263;-50
2022/06/07 06:23:03;;;;;;;2.77;2.57;;;16.50;99.90;;;;;;5046805;28;20264;-50
2022/06/07 06:25:30;;;;;;;3.20;3.00;;;16.50;99.90;;;;;;5048755;28;20205;-50
2022/06/07 06:27:58;;;;;;;3.67;3.47;;;16.50;99.90;;;;;;5047793;28;20271;-51
2022/06/07 06:30:25;;;;;;;3.13;2.93;;;16.50;99.90;;;;;;5046412;28;20668;-50
2022/06/07 06:32:52;;;;;;;3.13;2.87;;;16.40;99.90;;;;;;5048054;28;20201;-50
2022/06/07 06:35:19;;;;;;;2.20;2.10;;;16.40;99.90;;;;;;5048278;28;20915;-50
2022/06/07 06:37:46;;;;;;;3.03;2.73;;;16.40;99.90;;;;;;5049641;28;20255;-49
2022/06/07 06:40:13;;;;;;;2.37;2.27;;;16.50;99.90;;;;;;5049273;28;20735;-50
2022/06/07 06:42:40;;;;;;;2.67;2.47;;;16.60;99.90;;;;;;5047388;28;20251;-50
2022/06/07 06:45:09;;;;;;;2.53;2.17;;;16.70;99.90;;;;;;5046579;28;20741;-50
2022/06/07 06:47:37;;;;;;;2.47;1.53;;;16.80;99.90;;;;;;5045558;28;20251;-50
2022/06/07 06:50:05;;;;;;;5.53;1.93;;;16.80;99.90;;;;;;5061073;22;20253;-46
2022/06/07 06:52:32;;;;;;;1.70;1.50;;;16.90;99.90;;;;;;5034522;28;20226;-47
2022/06/07 06:54:59;;;;;;;4.63;1.70;;;17.00;99.90;;;;;;5034534;28;20285;-47
2022/06/07 06:57:25;;;;;;;1.27;1.17;;;17.10;99.90;;;;;;5035286;28;20206;-47
2022/06/07 06:59:52;;;;;;;1.17;0.73;;;17.20;99.90;;;;;;5035236;28;20246;-46
2022/06/07 07:02:21;;;;;;;1.23;1.20;;;17.30;99.90;;;;;;5031955;28;20530;-46
2022/06/07 07:04:51;;;;;;;1.67;0.80;;;17.20;99.90;;;;;;5033666;28;20198;-46
2022/06/07 07:07:18;;;;;;;2.70;2.50;;;17.20;99.90;;;;;;5033673;28;20674;-46
2022/06/07 07:09:47;;;;;;;1.40;1.03;;;17.20;99.90;;;;;;5034496;28;20222;-47
2022/06/07 07:12:14;;;;;;;0.83;0.83;;;17.20;99.90;;;;;;5032568;28;20305;-47
2022/06/07 07:14:41;;;;;;;1.60;0.87;;;17.30;99.90;;;;;;5034095;28;20210;-46
2022/06/07 07:17:08;;;;;;;0.77;0.70;;;17.30;99.90;;;;;;5033527;28;20222;-46
2022/06/07 07:19:37;;;;;;;1.27;0.70;;;17.30;99.90;;;;;;5034009;28;20272;-47
2022/06/07 07:22:08;;;;;;;0.67;0.67;;;17.30;99.90;;;;;;5030773;28;20233;-47
2022/06/07 07:24:34;;;;;;;0.70;0.70;;;17.40;99.90;;;;;;5033314;28;20226;-47
2022/06/07 07:27:02;;;;;;;1.00;0.90;;;17.40;99.90;;;;;;5033309;28;20198;-46
2022/06/07 07:29:30;;;;;;;0.80;0.80;;;17.40;99.90;;;;;;5032998;28;20227;-47
2022/06/07 07:31:57;;;;;;;1.80;0.53;;;17.50;99.90;;;;;;5032254;28;20210;-47
2022/06/07 07:34:23;;;;;;;0.60;0.60;;;17.50;99.90;;;;;;5033301;28;20244;-47
2022/06/07 07:36:55;;;;;;;0.80;0.80;;;17.50;99.90;;;;;;5033281;28;20191;-47
2022/06/07 07:39:22;;;;;;;1.57;0.50;;;17.40;99.90;;;;;;5033092;28;20214;-46
2022/06/07 07:41:51;;;;;;;0.70;0.70;;;17.40;99.90;;;;;;5032158;28;20198;-46
2022/06/07 07:44:18;;;;;;;0.50;0.50;;;17.40;99.90;;;;;;5031927;28;20660;-47
2022/06/07 07:46:47;;;;;;;1.50;0.60;;;17.50;99.90;;;;;;5033073;28;20274;-46
2022/06/07 07:49:16;;;;;;;0.60;0.60;;;17.70;99.90;;;;;;5032297;28;20226;-47
2022/06/07 07:51:46;;;;;;;0.50;0.50;;;17.90;99.90;;;;;;5033804;28;20198;-47
2022/06/07 07:54:19;;;;;;;0.40;0.40;;;18.10;99.90;;;;;;5029253;28;20196;-46
2022/06/07 07:56:46;;;;;;;0.80;0.80;;;18.30;99.90;;;;;;5031083;28;20234;-46
2022/06/07 07:59:15;;;;;;;0.60;0.60;;;18.40;99.90;;;;;;5033069;28;20264;-47
2022/06/07 08:01:43;;;;;;;0.70;0.70;;;18.50;99.90;;;;;;5033118;28;20194;-47
2022/06/07 08:04:10;;;;;;;0.53;0.53;;;18.50;99.90;;;;;;5035397;28;20255;-47
2022/06/07 08:06:37;;;;;;;0.70;0.70;;;18.60;99.90;;;;;;5029281;28;20211;-47
2022/06/07 08:09:08;;;;;;;1.60;1.10;;;18.60;99.90;;;;;;5033605;28;20276;-47
2022/06/07 08:11:39;;;;;;;0.97;0.97;;;18.60;99.90;;;;;;5031320;28;20282;-47
2022/06/07 08:14:09;;;;;;;0.90;0.90;;;18.50;99.90;;;;;;5031229;28;20583;-46
2022/06/07 08:16:36;;;;;;;0.90;0.90;;;18.40;99.90;;;;;;5033234;28;20197;-46
2022/06/07 08:19:03;;;;;;;1.50;0.50;;;18.40;99.90;;;;;;5033585;28;20717;-46
2022/06/07 08:21:30;;;;;;;0.73;0.73;;;18.40;99.90;;;;;;5030163;28;20719;-47
2022/06/07 08:23:58;;;;;;;0.70;0.70;;;18.30;99.90;;;;;;5031140;28;20237;-47
2022/06/07 08:26:27;;;;;;;1.07;0.63;;;18.30;99.90;;;;;;5031622;28;20198;-47
2022/06/07 08:28:56;;;;;;;0.70;0.70;;;18.30;99.90;;;;;;5031771;28;20273;-47
2022/06/07 08:31:25;;;;;;;0.57;0.57;;;18.40;99.90;;;;;;5029373;28;20273;-46
2022/06/07 08:39:24;;;;;;;0.40;0.40;;;18.50;99.90;;;;;;5031693;28;20253;-47
2022/06/07 08:41:55;;;;;;;0.70;0.70;;;18.60;99.90;;;;;;5031738;28;20207;-47
2022/06/07 08:44:28;;;;;;;0.73;0.73;;;18.60;99.90;;;;;;5031883;28;20202;-47
2022/06/07 08:46:58;;;;;;;0.70;0.70;;;18.70;99.90;;;;;;5029608;28;20264;-47
2022/06/07 08:49:25;;;;;;;0.60;0.60;;;18.80;99.90;;;;;;5031384;28;20794;-47
2022/06/07 08:51:59;;;;;;;0.60;0.50;;;18.90;99.90;;;;;;5031544;28;20233;-47
2022/06/07 08:54:30;;;;;;;1.13;0.70;;;19.00;99.90;;;;;;5031682;28;20669;-47
2022/06/07 08:57:02;;;;;;;3.60;0.70;;;19.10;99.90;;;;;;5027416;28;20203;-47
2022/06/07 08:59:31;;;;;;;0.50;0.50;;;19.10;99.90;;;;;;5031448;28;20276;-47
2022/06/07 09:02:06;;;;;;;0.50;0.50;;;19.30;99.90;;;;;;5030311;28;20202;-47
2022/06/07 09:04:36;;;;;;;1.50;0.50;;;19.50;99.90;;;;;;5031338;28;20244;-47
2022/06/07 09:07:07;;;;;;;0.50;0.50;;;19.40;99.90;;;;;;5031330;28;20289;-47
2022/06/07 09:12:24;;;;;;;0.70;0.60;;;19.60;99.90;;;;;;5031244;28;20210;-47
2022/06/07 09:15:03;;;;;;;1.07;1.07;;;19.70;99.90;;;;;;5029534;28;20226;-47
2022/06/07 09:17:32;;;;;;;1.57;1.13;;;19.70;99.90;;;;;;5031815;28;20198;-47
2022/06/07 09:19:59;;;;;;;1.03;1.03;;;19.80;99.90;;;;;;5028916;28;20834;-46
2022/06/07 09:22:38;;;;;;;1.33;1.33;;;19.70;99.90;;;;;;5031783;28;20218;-47
2022/06/07 09:25:11;;;;;;;2.83;1.20;;;19.70;99.90;;;;;;5027934;28;20681;-47
2022/06/07 09:27:39;;;;;;;1.80;1.03;;;19.50;99.90;;;;;;5028744;28;20730;-46
2022/06/07 09:30:20;;;;;;;1.30;1.20;;;19.40;99.90;;;;;;5023264;28;20226;-47
2022/06/07 09:32:50;;;;;;;1.07;0.83;;;19.40;99.90;;;;;;5020122;28;20194;-47
2022/06/07 09:35:21;;;;;;;0.90;0.90;;;19.40;99.90;;;;;;5028902;28;20229;-47
2022/06/07 09:37:51;;;;;;;1.10;1.10;;;19.60;99.90;;;;;;5030536;28;20202;-47
2022/06/07 09:40:27;;;;;;;1.17;0.90;;;19.60;99.90;;;;;;5023494;28;20313;-47
2022/06/07 09:43:01;;;;;;;1.50;1.40;;;19.70;99.90;;;;;;5029613;28;20202;-46
2022/06/07 09:45:32;;;;;;;1.30;1.30;;;19.90;99.90;;;;;;5025604;28;20258;-47
2022/06/07 09:48:18;;;;;;;1.07;1.07;;;20.30;99.90;;;;;;5029419;28;20210;-47
2022/06/07 09:50:54;;;;;;;1.20;1.10;;;20.40;99.90;;;;;;5026840;28;20292;-47
2022/06/07 09:53:21;;;;;;;1.10;1.10;;;20.80;99.90;;;;;;5030054;28;20202;-47
2022/06/07 09:55:57;;;;;;;1.40;1.40;;;21.20;99.90;;;;;;5023295;28;20199;-47
2022/06/07 09:58:41;;;;;;;0.83;0.83;;;21.60;99.90;;;;;;5024048;28;20257;-47
2022/06/07 10:01:19;;;;;;;1.20;1.20;;;21.60;99.90;;;;;;5030666;28;20210;-47
2022/06/07 10:03:52;;;;;;;1.10;1.10;;;21.60;99.90;;;;;;5031376;28;20656;-47
2022/06/07 10:06:27;;;;;;;1.50;1.47;;;21.40;99.90;;;;;;5030149;28;20226;-47
2022/06/07 10:09:25;;;;;;;0.90;0.90;;;21.10;99.90;;;;;;5028031;28;20640;-47
2022/06/07 10:12:05;;;;;;;1.90;1.80;;;20.80;99.90;;;;;;5030412;28;20249;-47
2022/06/07 10:14:43;;;;;;;1.00;1.00;;;20.60;99.90;;;;;;5030205;28;20625;-47
2022/06/07 10:18:00;;;;;;;0.97;0.97;;;20.40;99.90;;;;;;5030136;28;20202;-46
2022/06/07 10:20:37;;;;;;;1.23;1.20;;;20.30;99.90;;;;;;4949800;28;20296;-47
2022/06/07 10:23:26;;;;;;;1.53;1.53;;;20.20;99.90;;;;;;5013562;28;20313;-46
2022/06/07 10:26:05;;;;;;;1.10;1.00;;;19.90;99.90;;;;;;5027594;28;20236;-46
2022/06/07 10:28:37;;;;;;;1.07;1.07;;;19.40;99.90;;;;;;5029234;28;20278;-47
2022/06/07 10:31:12;;;;;;;1.07;1.07;;;19.10;99.90;;;;;;5030040;28;20214;-47
2022/06/07 10:33:52;;;;;;;0.80;0.80;;;19.20;99.90;;;;;;5026587;28;20676;-46
2022/06/07 10:36:31;;;;;;;1.07;0.70;;;19.40;99.90;;;;;;5029585;28;20237;-47
2022/06/07 10:39:11;;;;;;;1.07;1.00;;;19.60;99.90;;;;;;5025809;28;20226;-46
2022/06/07 10:41:50;;;;;;;2.00;1.40;;;19.80;99.90;;;;;;5029728;28;20635;-47
2022/06/07 10:44:29;;;;;;;0.80;0.80;;;20.10;99.90;;;;;;5029839;28;20194;-47
2022/06/07 10:46:56;;;;;;;0.77;0.77;;;20.60;99.90;;;;;;5030107;28;20190;-46
2022/06/07 10:49:32;;;;;;;0.60;0.60;;;21.00;99.90;;;;;;5029744;28;20307;-47
2022/06/07 10:52:24;;;;;;;1.00;1.00;;;21.10;99.90;;;;;;5029717;28;20198;-47
2022/06/07 10:54:59;;;;;;;0.50;0.50;;;21.20;99.90;;;;;;5028605;28;20202;-47
2022/06/07 10:57:34;;;;;;;0.80;0.80;;;21.20;99.90;;;;;;5028664;28;20206;-47
2022/06/07 11:00:17;;;;;;;0.70;0.70;;;21.40;99.90;;;;;;5027403;28;20225;-47
2022/06/07 11:02:56;;;;;;;0.80;0.77;;;21.40;99.90;;;;;;5022025;28;20684;-46
2022/06/07 11:11:11;;;;;;;0.83;0.83;;;21.10;99.90;;;;;;5028448;28;20634;-47
2022/06/07 11:13:48;;;;;;;0.60;0.60;;;21.50;99.90;;;;;;5028753;28;20676;-47
2022/06/07 11:16:20;;;;;;;0.33;0.33;;;22.10;99.90;;;;;;5027102;28;20410;-48
2022/06/07 11:18:47;;;;;;;0.30;0.30;;;22.00;99.90;;;;;;5028070;28;20270;-47
2022/06/07 11:21:28;;;;;;;0.40;0.30;;;22.30;99.90;;;;;;5030772;28;20198;-47
2022/06/07 11:24:05;;;;;;;0.37;0.37;;;22.40;99.90;;;;;;5031123;28;20627;-47
2022/06/07 11:26:40;;;;;;;0.67;0.40;;;22.50;99.90;;;;;;5021872;28;20237;-47
2022/06/07 11:29:09;;;;;;;0.87;0.37;;;22.60;99.90;;;;;;5029920;28;20229;-47
2022/06/07 11:31:44;;;;;;;0.47;0.20;;;22.70;99.90;;;;;;5026216;28;20191;-47
2022/06/07 11:34:20;;;;;;;0.20;0.20;;;22.70;99.90;;;;;;5011308;28;20265;-47
2022/06/07 11:36:49;;;;;;;1.13;0.30;;;22.70;99.90;;;;;;5011171;28;20203;-47
2022/06/07 11:39:32;;;;;;;0.20;0.20;;;22.90;99.90;;;;;;5014527;28;20219;-46
2022/06/07 11:42:31;;;;;;;0.27;0.27;;;23.10;99.90;;;;;;5026801;28;20242;-47
2022/06/07 11:45:19;;;;;;;0.10;0.10;;;23.20;99.90;;;;;;5025239;28;20222;-47
2022/06/07 11:48:11;;;;;;;0.20;0.20;;;23.30;99.90;;;;;;5033615;28;20289;-47
2022/06/07 11:50:43;;;;;;;0.30;0.20;;;23.20;99.90;;;;;;5033945;28;20227;-47
2022/06/07 11:53:24;;;;;;;0.37;0.10;;;23.20;99.90;;;;;;5033892;28;20746;-47
2022/06/07 11:55:58;;;;;;;1.40;0.30;;;23.10;99.90;;;;;;5034052;28;20751;-47
2022/06/07 11:58:59;;;;;;;0.27;0.20;;;23.10;99.90;;;;;;5032896;28;20202;-47
2022/06/07 12:01:40;;;;;;;0.20;0.20;;;22.90;99.90;;;;;;5033689;28;20237;-47
2022/06/07 12:04:22;;;;;;;0.20;0.20;;;22.80;99.90;;;;;;5033402;28;20289;-47
2022/06/07 12:06:51;;;;;;;0.20;0.17;;;23.00;99.90;;;;;;5033309;28;20676;-47
2022/06/07 12:09:19;;;;;;;0.20;0.20;;;23.00;99.90;;;;;;5033736;28;20799;-47
2022/06/07 12:11:46;;;;;;;0.40;0.20;;;23.00;99.90;;;;;;5024366;28;20222;-47
2022/06/07 12:14:42;;;;;;;0.30;0.30;;;23.20;99.90;;;;;;5032851;28;20661;-46
2022/06/07 12:17:25;;;;;;;0.10;0.10;;;23.00;99.90;;;;;;5014053;28;20578;-47
2022/06/07 12:19:53;;;;;;;0.20;0.20;;;23.00;99.90;;;;;;5013765;28;20226;-46
2022/06/07 12:22:23;;;;;;;0.20;0.20;;;23.00;99.90;;;;;;5033092;28;20206;-47
2022/06/07 12:24:55;;;;;;;0.10;0.10;;;22.70;99.90;;;;;;5028476;28;20602;-47
2022/06/07 12:27:26;;;;;;;0.10;0.10;;;22.90;99.90;;;;;;5026943;28;20285;-47
2022/06/07 12:30:00;;;;;;;0.20;0.20;;;22.90;99.90;;;;;;5031305;28;20313;-46
2022/06/07 12:32:32;;;;;;;0.70;0.10;;;22.90;99.90;;;;;;5031395;28;20222;-47
2022/06/07 12:35:21;;;;;;;0.10;0.10;;;22.70;99.90;;;;;;5032069;28;20734;-47
2022/06/07 12:37:53;;;;;;;0.23;0.10;;;22.60;99.90;;;;;;5023441;28;20248;-47
2022/06/07 12:40:28;;;;;;;0.10;0.10;;;22.80;99.90;;;;;;5030071;28;20778;-47
2022/06/07 12:42:55;;;;;;;0.20;0.20;;;22.80;99.90;;;;;;5031791;28;20198;-47
2022/06/07 12:45:25;;;;;;;0.20;0.20;;;22.60;99.90;;;;;;5031935;28;20203;-47
2022/06/07 12:48:02;;;;;;;0.20;0.20;;;22.70;99.90;;;;;;5032350;28;20203;-47
2022/06/07 12:50:32;;;;;;;0.10;0.10;;;22.50;99.90;;;;;;5071958;22;20273;-52
2022/06/07 12:53:00;;;;;;;0.10;0.10;;;22.40;99.90;;;;;;5050538;28;20609;-52
2022/06/07 12:55:30;;;;;;;0.10;0.10;;;22.40;99.90;;;;;;5051909;28;20794;-52
2022/06/07 12:57:59;;;;;;;0.13;0.10;;;22.40;99.90;;;;;;5051967;28;20198;-52
2022/06/07 13:00:31;;;;;;;0.10;0.10;;;22.40;99.90;;;;;;5066251;28;20217;-52
2022/06/07 13:03:01;;;;;;;0.10;0.10;;;22.50;99.90;;;;;;5071675;28;20274;-51
2022/06/07 13:05:31;;;;;;;0.20;0.20;;;22.50;99.90;;;;;;5071731;28;20682;-51
2022/06/07 13:08:01;;;;;;;0.10;0.10;;;22.50;99.90;;;;;;5071953;28;20225;-51
2022/06/07 13:10:31;;;;;;;0.13;0.13;;;22.50;99.90;;;;;;5068346;28;20217;-52
2022/06/07 13:13:00;;;;;;;0.30;0.20;;;22.60;99.90;;;;;;5056122;28;20633;-51
2022/06/07 13:15:31;;;;;;;1.90;0.20;;;22.70;99.90;;;;;;5052526;28;20260;-51
2022/06/07 13:18:02;;;;;;;0.10;0.10;;;22.60;99.90;;;;;;5069928;28;20727;-51
2022/06/07 13:20:33;;;;;;;0.20;0.20;;;22.20;99.90;;;;;;5071380;28;20291;-51
2022/06/07 13:23:01;;;;;;;0.20;0.20;;;22.10;99.90;;;;;;5071284;28;20262;-52
2022/06/07 13:25:31;;;;;;;1.10;0.17;;;22.00;99.90;;;;;;5071678;28;20198;-51
2022/06/07 13:28:05;;;;;;;0.10;0.10;;;22.00;99.90;;;;;;5067374;28;20189;-51